createdAt,value
2019-04-01T00:00:36.487Z,3.29
2019-04-01T00:03:06.738Z,3.22
2019-04-01T00:05:36.178Z,3.15
2019-04-01T00:08:05.586Z,3.09
2019-04-01T00:10:35.031Z,2.95
2019-04-01T00:13:04.446Z,2.91
2019-04-01T00:15:33.884Z,2.83
2019-04-01T00:18:03.308Z,2.74
2019-04-01T00:20:32.739Z,2.66
2019-04-01T00:23:02.421Z,2.56
2019-04-01T00:25:31.963Z,2.47
2019-04-01T00:28:01.381Z,2.45
2019-04-01T00:30:30.824Z,2.35
2019-04-01T00:33:00.238Z,2.25
2019-04-01T00:35:29.684Z,2.13
2019-04-01T00:37:59.104Z,2.00
2019-04-01T00:40:28.556Z,1.93
2019-04-01T00:43:05.567Z,1.93
2019-04-01T00:45:36.644Z,1.88
2019-04-01T00:48:06.054Z,1.86
2019-04-01T00:50:35.501Z,1.85
2019-04-01T00:53:04.912Z,1.82
2019-04-01T00:55:34.407Z,1.79
2019-04-01T00:58:03.828Z,1.75
2019-04-01T01:00:33.289Z,1.73
2019-04-01T01:03:02.682Z,1.63
2019-04-01T01:05:32.128Z,1.64
2019-04-01T01:08:01.550Z,1.61
2019-04-01T01:10:31.121Z,1.52
2019-04-01T01:13:02.007Z,1.54
2019-04-01T01:15:31.490Z,1.53
2019-04-01T01:18:01.197Z,1.50
2019-04-01T01:20:30.644Z,1.45
2019-04-01T01:23:00.158Z,1.42
2019-04-01T01:25:29.581Z,1.40
2019-04-01T01:27:58.996Z,1.37
2019-04-01T01:30:28.437Z,1.37
2019-04-01T01:32:57.851Z,1.34
2019-04-01T01:35:27.291Z,1.32
2019-04-01T01:37:56.706Z,1.36
2019-04-01T01:40:26.149Z,1.29
2019-04-01T01:42:55.565Z,1.27
2019-04-01T01:45:24.999Z,1.23
2019-04-01T01:47:54.443Z,1.22
2019-04-01T01:50:23.850Z,1.22
2019-04-01T01:52:53.289Z,1.17
2019-04-01T01:55:22.704Z,1.15
2019-04-01T01:57:52.231Z,1.17
2019-04-01T02:00:22.510Z,1.17
2019-04-01T02:02:51.963Z,1.15
2019-04-01T02:05:21.388Z,1.19
2019-04-01T02:07:50.818Z,1.15
2019-04-01T02:10:20.530Z,1.19
2019-04-01T02:12:49.959Z,1.22
2019-04-01T02:15:19.371Z,1.21
2019-04-01T02:17:49.951Z,1.25
2019-04-01T02:20:19.703Z,1.25
2019-04-01T02:22:49.145Z,1.30
2019-04-01T02:25:18.556Z,1.26
2019-04-01T02:27:48.023Z,1.26
2019-04-01T02:30:17.635Z,1.26
2019-04-01T02:32:47.087Z,1.26
2019-04-01T02:35:16.497Z,1.34
2019-04-01T02:37:45.944Z,1.29
2019-04-01T02:40:15.368Z,1.32
2019-04-01T02:42:45.019Z,1.35
2019-04-01T02:45:15.813Z,1.33
2019-04-01T02:47:45.251Z,1.32
2019-04-01T02:50:14.817Z,1.32
2019-04-01T02:52:44.281Z,1.35
2019-04-01T02:55:13.698Z,1.29
2019-04-01T02:57:43.208Z,1.34
2019-04-01T03:00:12.631Z,1.31
2019-04-01T03:02:42.070Z,1.31
2019-04-01T03:05:12.248Z,1.35
2019-04-01T03:07:41.694Z,1.41
2019-04-01T03:10:11.232Z,1.40
2019-04-01T03:12:40.624Z,1.42
2019-04-01T03:15:10.038Z,1.51
2019-04-01T03:17:39.471Z,1.48
2019-04-01T03:20:09.042Z,1.48
2019-04-01T03:22:38.476Z,1.47
2019-04-01T03:25:07.888Z,1.43
2019-04-01T03:27:37.334Z,1.34
2019-04-01T03:30:06.742Z,1.19
2019-04-01T03:32:43.923Z,1.04
2019-04-01T03:35:07.316Z,0.99
2019-04-01T03:37:36.805Z,0.85
2019-04-01T03:40:06.490Z,0.73
2019-04-01T03:42:35.935Z,0.66
2019-04-01T03:45:06.116Z,0.55
2019-04-01T03:47:35.564Z,0.53
2019-04-01T03:50:05.444Z,0.40
2019-04-01T03:52:34.886Z,0.39
2019-04-01T03:55:04.672Z,0.32
2019-04-01T03:57:34.123Z,0.26
2019-04-01T04:00:05.364Z,0.13
2019-04-01T04:02:34.814Z,0.07
2019-04-01T04:05:06.040Z,0.06
2019-04-01T04:07:35.486Z,0.04
2019-04-01T04:10:06.475Z,0.07
2019-04-01T04:12:35.917Z,0.08
2019-04-01T04:15:06.086Z,0.06
2019-04-01T04:17:35.532Z,0.07
2019-04-01T04:20:05.214Z,0.04
2019-04-01T04:22:34.665Z,0.04
2019-04-01T04:25:05.119Z,-0.01
2019-04-01T04:27:34.576Z,-0.06
2019-04-01T04:30:05.545Z,-0.14
2019-04-01T04:32:35.182Z,-0.19
2019-04-01T04:35:05.636Z,-0.17
2019-04-01T04:37:35.079Z,-0.17
2019-04-01T04:40:06.428Z,-0.17
2019-04-01T04:42:35.875Z,-0.13
2019-04-01T04:45:06.441Z,-0.16
2019-04-01T04:47:35.897Z,-0.23
2019-04-01T04:50:05.474Z,-0.23
2019-04-01T04:52:34.927Z,-0.24
2019-04-01T04:55:05.206Z,-0.22
2019-04-01T04:57:34.657Z,-0.16
2019-04-01T05:00:06.416Z,-0.12
2019-04-01T05:02:35.837Z,-0.13
2019-04-01T05:05:06.469Z,-0.08
2019-04-01T05:07:35.885Z,0.02
2019-04-01T05:10:07.478Z,-0.02
2019-04-01T05:12:36.909Z,-0.02
2019-04-01T05:15:07.348Z,-0.16
2019-04-01T05:17:36.771Z,-0.12
2019-04-01T05:20:06.330Z,-0.09
2019-04-01T05:22:35.748Z,0.02
2019-04-01T05:25:05.480Z,0.14
2019-04-01T05:27:35.061Z,0.25
2019-04-01T05:30:07.656Z,0.38
2019-04-01T05:32:37.546Z,0.51
2019-04-01T05:35:07.063Z,0.69
2019-04-01T05:37:36.476Z,0.81
2019-04-01T05:40:06.156Z,0.97
2019-04-01T05:42:35.945Z,1.09
2019-04-01T05:45:06.837Z,1.28
2019-04-01T05:47:46.769Z,1.38
2019-04-01T05:50:16.246Z,1.54
2019-04-01T05:52:45.658Z,1.70
2019-04-01T05:55:15.104Z,1.82
2019-04-01T05:57:44.784Z,1.88
2019-04-01T06:00:20.986Z,1.91
2019-04-01T06:02:50.500Z,2.06
2019-04-01T06:05:20.060Z,2.15
2019-04-01T06:07:49.476Z,2.27
2019-04-01T06:10:19.408Z,2.38
2019-04-01T06:12:49.007Z,2.43
2019-04-01T06:15:21.364Z,2.54
2019-04-01T06:17:50.825Z,2.66
2019-04-01T06:20:20.264Z,2.79
2019-04-01T06:22:49.753Z,2.94
2019-04-01T06:25:19.244Z,3.10
2019-04-01T06:27:48.652Z,3.14
2019-04-01T06:30:18.109Z,3.27
2019-04-01T06:32:47.878Z,3.34
2019-04-01T06:35:17.355Z,3.43
2019-04-01T06:37:46.765Z,3.50
2019-04-01T06:40:16.228Z,3.61
2019-04-01T06:42:45.657Z,3.75
2019-04-01T06:45:15.101Z,3.85
2019-04-01T06:47:44.541Z,3.87
2019-04-01T06:50:13.991Z,4.00
2019-04-01T06:52:43.404Z,4.18
2019-04-01T06:55:12.849Z,4.27
2019-04-01T06:57:42.261Z,4.34
2019-04-01T07:00:11.707Z,4.48
2019-04-01T07:02:41.118Z,4.59
2019-04-01T07:05:12.625Z,4.68
2019-04-01T07:07:41.883Z,4.79
2019-04-01T07:10:11.335Z,4.95
2019-04-01T07:12:40.752Z,5.05
2019-04-01T07:15:10.201Z,5.13
2019-04-01T07:17:39.611Z,5.21
2019-04-01T07:20:09.264Z,5.34
2019-04-01T07:22:38.657Z,5.42
2019-04-01T07:25:08.099Z,5.50
2019-04-01T07:27:37.508Z,5.65
2019-04-01T07:30:06.958Z,5.78
2019-04-01T07:32:36.366Z,5.94
2019-04-01T07:35:05.816Z,6.07
2019-04-01T07:37:35.233Z,6.19
2019-04-01T07:40:05.706Z,6.30
2019-04-01T07:42:35.124Z,6.44
2019-04-01T07:45:06.580Z,6.64
2019-04-01T07:47:36.021Z,6.70
2019-04-01T07:50:06.253Z,6.79
2019-04-01T07:52:35.656Z,6.92
2019-04-01T07:55:06.438Z,7.06
2019-04-01T07:57:35.850Z,7.11
2019-04-01T08:00:08.216Z,7.26
2019-04-01T08:02:37.623Z,7.38
2019-04-01T08:05:07.078Z,7.39
2019-04-01T08:07:36.491Z,7.56
2019-04-01T08:10:07.102Z,7.72
2019-04-01T08:12:36.542Z,7.96
2019-04-01T08:15:07.051Z,8.18
2019-04-01T08:17:36.465Z,8.33
2019-04-01T08:20:05.984Z,8.49
2019-04-01T08:22:35.412Z,8.62
2019-04-01T08:25:06.487Z,8.82
2019-04-01T08:27:35.919Z,8.82
2019-04-01T08:30:08.306Z,9.00
2019-04-01T08:32:37.743Z,8.76
2019-04-01T08:35:07.153Z,8.93
2019-04-01T08:37:39.987Z,9.13
2019-04-01T08:40:07.693Z,9.40
2019-04-01T08:42:37.137Z,9.50
2019-04-01T08:45:09.474Z,9.86
2019-04-01T08:47:38.902Z,10.04
2019-04-01T08:50:08.316Z,10.16
2019-04-01T08:52:37.752Z,10.34
2019-04-01T08:55:07.402Z,10.55
2019-04-01T08:57:36.868Z,10.84
2019-04-01T09:00:08.990Z,10.88
2019-04-01T09:02:38.431Z,10.82
2019-04-01T09:05:07.835Z,11.01
2019-04-01T09:07:37.295Z,11.00
2019-04-01T09:10:06.698Z,10.78
2019-04-01T09:12:36.145Z,10.93
2019-04-01T09:15:07.187Z,11.30
2019-04-01T09:17:40.105Z,11.38
2019-04-01T09:20:07.728Z,11.80
2019-04-01T09:22:37.176Z,11.01
2019-04-01T09:25:06.595Z,11.50
2019-04-01T09:27:36.040Z,12.65
2019-04-01T09:30:08.653Z,13.84
2019-04-01T09:32:38.404Z,14.88
2019-04-01T09:35:07.816Z,15.32
2019-04-01T09:37:37.275Z,16.13
2019-04-01T09:40:07.348Z,17.00
2019-04-01T09:42:36.799Z,17.55
2019-04-01T09:45:07.344Z,18.29
2019-04-01T09:47:36.784Z,17.78
2019-04-01T09:50:06.208Z,17.98
2019-04-01T09:52:35.649Z,18.13
2019-04-01T09:55:06.442Z,17.69
2019-04-01T09:57:36.076Z,17.72
2019-04-01T10:00:08.438Z,18.11
2019-04-01T10:02:37.877Z,18.82
2019-04-01T10:05:07.451Z,18.33
2019-04-01T10:07:37.047Z,18.91
2019-04-01T10:10:06.590Z,18.79
2019-04-01T10:12:36.207Z,19.27
2019-04-01T10:15:06.991Z,18.92
2019-04-01T10:17:36.437Z,19.09
2019-04-01T10:20:07.987Z,19.29
2019-04-01T10:22:37.446Z,18.90
2019-04-01T10:25:06.863Z,18.73
2019-04-01T10:27:36.296Z,18.61
2019-04-01T10:30:07.615Z,18.00
2019-04-01T10:32:37.265Z,17.67
2019-04-01T10:35:07.147Z,17.06
2019-04-01T10:37:36.598Z,16.83
2019-04-01T10:40:07.075Z,15.51
2019-04-01T10:42:36.514Z,16.74
2019-04-01T10:45:08.635Z,17.05
2019-04-01T10:47:38.210Z,17.78
2019-04-01T10:50:07.701Z,17.55
2019-04-01T10:52:37.254Z,18.35
2019-04-01T10:55:06.667Z,18.72
2019-04-01T10:57:36.293Z,19.26
2019-04-01T11:00:08.507Z,18.86
2019-04-01T11:02:38.323Z,18.64
2019-04-01T11:05:08.176Z,18.84
2019-04-01T11:07:37.651Z,19.12
2019-04-01T11:10:11.724Z,19.88
2019-04-01T11:12:41.103Z,20.69
2019-04-01T11:15:10.541Z,21.39
2019-04-01T11:17:43.893Z,21.57
2019-04-01T11:20:13.986Z,20.79
2019-04-01T11:22:43.624Z,20.15
2019-04-01T11:25:13.073Z,20.07
2019-04-01T11:27:42.519Z,19.43
2019-04-01T11:30:13.859Z,19.87
2019-04-01T11:32:43.103Z,19.64
2019-04-01T11:35:12.536Z,19.64
2019-04-01T11:37:42.021Z,20.05
2019-04-01T11:40:12.366Z,20.25
2019-04-01T11:42:42.151Z,20.85
2019-04-01T11:45:11.907Z,21.65
2019-04-01T11:47:41.510Z,21.61
2019-04-01T11:50:10.994Z,21.70
2019-04-01T11:52:40.459Z,21.56
2019-04-01T11:55:09.943Z,21.22
2019-04-01T11:57:40.465Z,20.27
2019-04-01T12:00:17.545Z,20.73
2019-04-01T12:02:46.958Z,21.01
2019-04-01T12:05:19.627Z,21.63
2019-04-01T12:07:49.063Z,21.97
2019-04-01T12:10:18.528Z,22.06
2019-04-01T12:12:47.938Z,22.38
2019-04-01T12:15:17.436Z,22.62
2019-04-01T12:17:47.948Z,23.17
2019-04-01T12:20:17.416Z,22.53
2019-04-01T12:22:46.928Z,22.67
2019-04-01T12:25:16.383Z,23.04
2019-04-01T12:27:45.792Z,23.19
2019-04-01T12:30:15.231Z,23.82
2019-04-01T12:32:44.643Z,23.89
2019-04-01T12:35:14.123Z,24.66
2019-04-01T12:37:43.540Z,23.93
2019-04-01T12:40:12.984Z,24.07
2019-04-01T12:42:42.400Z,24.12
2019-04-01T12:45:11.843Z,24.19
2019-04-01T12:47:43.186Z,24.30
2019-04-01T12:50:12.488Z,23.53
2019-04-01T12:52:42.001Z,23.74
2019-04-01T12:55:11.456Z,23.91
2019-04-01T12:57:40.936Z,24.32
2019-04-01T13:00:11.850Z,24.01
2019-04-01T13:02:41.260Z,24.41
2019-04-01T13:05:10.706Z,23.76
2019-04-01T13:07:40.115Z,23.66
2019-04-01T13:10:09.620Z,22.73
2019-04-01T13:12:41.487Z,22.08
2019-04-01T13:15:13.137Z,21.16
2019-04-01T13:17:42.732Z,20.39
2019-04-01T13:20:13.949Z,19.43
2019-04-01T13:22:43.403Z,18.93
2019-04-01T13:25:13.048Z,17.93
2019-04-01T13:27:42.454Z,17.42
2019-04-01T13:30:12.137Z,17.18
2019-04-01T13:32:41.550Z,16.60
2019-04-01T13:35:10.992Z,16.47
2019-04-01T13:37:41.771Z,16.33
2019-04-01T13:40:11.235Z,16.56
2019-04-01T13:42:40.647Z,16.31
2019-04-01T13:45:10.093Z,16.44
2019-04-01T13:47:41.219Z,16.83
2019-04-01T13:50:10.644Z,17.23
2019-04-01T13:52:40.051Z,18.27
2019-04-01T13:55:10.094Z,19.26
2019-04-01T13:57:39.802Z,19.85
2019-04-01T14:00:09.296Z,20.16
2019-04-01T14:02:38.764Z,18.66
2019-04-01T14:05:08.879Z,18.05
2019-04-01T14:07:38.338Z,17.29
2019-04-01T14:10:07.851Z,16.40
2019-04-01T14:12:37.431Z,15.69
2019-04-01T14:15:07.017Z,15.56
2019-04-01T14:17:40.348Z,15.61
2019-04-01T14:20:10.241Z,15.53
2019-04-01T14:22:39.776Z,15.27
2019-04-01T14:25:09.185Z,15.43
2019-04-01T14:27:39.507Z,15.35
2019-04-01T14:30:09.147Z,15.17
2019-04-01T14:32:39.090Z,14.96
2019-04-01T14:35:08.505Z,14.44
2019-04-01T14:37:39.728Z,14.45
2019-04-01T14:40:09.178Z,14.22
2019-04-01T14:42:39.777Z,14.28
2019-04-01T14:45:09.686Z,14.10
2019-04-01T14:47:55.973Z,14.33
2019-04-01T14:50:10.727Z,14.43
2019-04-01T14:52:41.350Z,14.47
2019-04-01T14:55:11.110Z,14.55
2019-04-01T14:57:40.566Z,14.66
2019-04-01T15:00:12.018Z,14.84
2019-04-01T15:02:41.465Z,15.11
2019-04-01T15:05:10.981Z,15.58
2019-04-01T15:07:40.415Z,15.30
2019-04-01T15:10:10.400Z,16.45
2019-04-01T15:12:39.915Z,17.46
2019-04-01T15:15:09.977Z,16.23
2019-04-01T15:17:39.436Z,15.28
2019-04-01T15:20:08.868Z,14.85
2019-04-01T15:22:38.312Z,14.71
2019-04-01T15:25:08.000Z,14.58
2019-04-01T15:27:37.444Z,14.30
2019-04-01T15:30:08.100Z,14.14
2019-04-01T15:32:37.536Z,13.90
2019-04-01T15:35:07.520Z,13.69
2019-04-01T15:37:36.969Z,13.50
2019-04-01T15:40:07.165Z,13.32
2019-04-01T15:42:36.622Z,13.34
2019-04-01T15:45:06.426Z,13.11
2019-04-01T15:47:36.138Z,12.96
2019-04-01T15:50:06.312Z,12.82
2019-04-01T15:52:35.776Z,12.65
2019-04-01T15:55:07.866Z,12.60
2019-04-01T15:57:37.317Z,12.51
2019-04-01T16:00:06.814Z,12.40
2019-04-01T16:02:36.363Z,12.39
2019-04-01T16:05:07.224Z,12.30
2019-04-01T16:07:36.673Z,12.15
2019-04-01T16:10:06.153Z,11.97
2019-04-01T16:12:35.676Z,11.96
2019-04-01T16:15:06.846Z,11.89
2019-04-01T16:17:36.321Z,11.79
2019-04-01T16:20:08.420Z,11.74
2019-04-01T16:22:37.865Z,11.80
2019-04-01T16:25:07.453Z,11.58
2019-04-01T16:27:36.907Z,11.45
2019-04-01T16:30:07.973Z,11.36
2019-04-01T16:32:37.524Z,11.34
2019-04-01T16:35:07.022Z,11.21
2019-04-01T16:37:36.488Z,11.09
2019-04-01T16:40:06.456Z,10.98
2019-04-01T16:42:35.906Z,10.85
2019-04-01T16:45:06.897Z,10.76
2019-04-01T16:47:36.317Z,10.70
2019-04-01T16:50:09.430Z,10.62
2019-04-01T16:52:38.851Z,10.47
2019-04-01T16:55:08.295Z,10.34
2019-04-01T16:57:37.716Z,10.15
2019-04-01T17:00:08.964Z,10.01
2019-04-01T17:02:38.372Z,9.97
2019-04-01T17:05:07.879Z,9.91
2019-04-01T17:07:37.301Z,9.87
2019-04-01T17:10:07.412Z,9.73
2019-04-01T17:12:36.824Z,9.68
2019-04-01T17:15:06.270Z,9.64
2019-04-01T17:17:35.690Z,9.53
2019-04-01T17:20:06.384Z,9.44
2019-04-01T17:22:35.813Z,9.31
2019-04-01T17:25:06.696Z,9.24
2019-04-01T17:27:36.110Z,9.16
2019-04-01T17:30:11.470Z,9.07
2019-04-01T17:32:40.885Z,9.02
2019-04-01T17:35:10.354Z,8.96
2019-04-01T17:37:39.757Z,8.83
2019-04-01T17:40:10.526Z,8.75
2019-04-01T17:42:40.146Z,8.71
2019-04-01T17:45:16.235Z,8.63
2019-04-01T17:47:45.851Z,8.56
2019-04-01T17:50:15.425Z,8.48
2019-04-01T17:52:44.828Z,8.36
2019-04-01T17:55:14.272Z,8.43
2019-04-01T17:57:43.693Z,8.35
2019-04-01T18:00:17.753Z,8.16
2019-04-01T18:02:47.176Z,8.10
2019-04-01T18:05:16.651Z,8.07
2019-04-01T18:07:46.059Z,7.97
2019-04-01T18:10:15.511Z,7.93
2019-04-01T18:12:44.933Z,7.88
2019-04-01T18:15:16.097Z,7.84
2019-04-01T18:17:45.689Z,7.78
2019-04-01T18:20:15.309Z,7.82
2019-04-01T18:22:44.721Z,7.72
2019-04-01T18:25:14.178Z,7.66
2019-04-01T18:27:44.360Z,7.65
2019-04-01T18:30:14.691Z,7.62
2019-04-01T18:32:44.112Z,7.55
2019-04-01T18:35:13.577Z,7.44
2019-04-01T18:37:43.003Z,7.33
2019-04-01T18:40:12.540Z,7.27
2019-04-01T18:42:41.972Z,7.27
2019-04-01T18:45:11.426Z,7.23
2019-04-01T18:47:40.849Z,7.20
2019-04-01T18:50:10.300Z,7.20
2019-04-01T18:52:39.735Z,7.14
2019-04-01T18:55:09.172Z,7.06
2019-04-01T18:57:38.591Z,7.02
2019-04-01T19:00:09.676Z,6.97
2019-04-01T19:02:39.099Z,7.01
2019-04-01T19:05:10.034Z,6.99
2019-04-01T19:07:39.529Z,6.91
2019-04-01T19:10:09.013Z,6.87
2019-04-01T19:12:38.396Z,6.80
2019-04-01T19:15:09.857Z,6.81
2019-04-01T19:17:39.257Z,6.69
2019-04-01T19:20:08.848Z,6.65
2019-04-01T19:22:38.312Z,6.61
2019-04-01T19:25:07.743Z,6.55
2019-04-01T19:27:37.187Z,6.53
2019-04-01T19:30:07.348Z,6.47
2019-04-01T19:32:38.140Z,6.53
2019-04-01T19:35:09.476Z,6.47
2019-04-01T19:37:39.032Z,6.39
2019-04-01T19:40:08.451Z,6.39
2019-04-01T19:42:40.371Z,6.34
2019-04-01T19:45:11.963Z,6.32
2019-04-01T19:47:41.774Z,6.29
2019-04-01T19:50:11.189Z,6.26
2019-04-01T19:52:40.664Z,6.18
2019-04-01T19:55:10.355Z,6.18
2019-04-01T19:57:39.806Z,6.15
2019-04-01T20:00:09.223Z,6.12
2019-04-01T20:02:38.664Z,6.09
2019-04-01T20:05:08.110Z,6.07
2019-04-01T20:07:37.924Z,5.99
2019-04-01T20:10:07.347Z,5.90
2019-04-01T20:12:36.811Z,5.86
2019-04-01T20:15:11.935Z,5.84
2019-04-01T20:17:41.807Z,5.83
2019-04-01T20:20:14.251Z,5.76
2019-04-01T20:22:42.367Z,5.79
2019-04-01T20:25:14.678Z,5.76
2019-04-01T20:27:44.340Z,5.73
2019-04-01T20:30:15.104Z,5.70
2019-04-01T20:32:44.551Z,5.67
2019-04-01T20:35:23.289Z,5.67
2019-04-01T20:37:45.235Z,5.62
2019-04-01T20:40:14.607Z,5.60
2019-04-01T20:42:44.058Z,5.60
2019-04-01T20:45:13.823Z,5.51
2019-04-01T20:47:43.291Z,5.50
2019-04-01T20:50:13.884Z,5.47
2019-04-01T20:52:43.326Z,5.40
2019-04-01T20:55:13.496Z,5.40
2019-04-01T20:57:43.268Z,5.34
2019-04-01T21:00:12.683Z,5.30
2019-04-01T21:02:42.123Z,5.26
2019-04-01T21:05:11.537Z,5.22
2019-04-01T21:07:40.974Z,5.15
2019-04-01T21:10:10.392Z,5.09
2019-04-01T21:12:39.840Z,5.07
2019-04-01T21:15:09.284Z,5.03
2019-04-01T21:17:38.735Z,5.03
2019-04-01T21:20:08.222Z,5.00
2019-04-01T21:22:37.664Z,5.01
2019-04-01T21:25:07.219Z,4.95
2019-04-01T21:27:36.670Z,4.86
2019-04-01T21:30:10.840Z,4.85
2019-04-01T21:32:40.283Z,4.82
2019-04-01T21:35:09.776Z,4.85
2019-04-01T21:37:39.230Z,4.78
2019-04-01T21:40:08.647Z,4.76
2019-04-01T21:42:38.096Z,4.72
2019-04-01T21:45:08.384Z,4.65
2019-04-01T21:47:37.853Z,4.60
2019-04-01T21:50:07.269Z,4.57
2019-04-01T21:52:36.711Z,4.55
2019-04-01T21:55:08.294Z,4.54
2019-04-01T21:57:37.996Z,4.49
2019-04-01T22:00:09.849Z,4.57
2019-04-01T22:02:39.298Z,4.52
2019-04-01T22:05:10.165Z,4.50
2019-04-01T22:07:40.036Z,4.49
2019-04-01T22:10:11.079Z,4.49
2019-04-01T22:12:40.516Z,4.50
2019-04-01T22:15:09.973Z,4.49
2019-04-01T22:17:39.417Z,4.45
2019-04-01T22:20:10.217Z,4.41
2019-04-01T22:22:39.743Z,4.42
2019-04-01T22:25:09.187Z,4.34
2019-04-01T22:27:38.596Z,4.29
2019-04-01T22:30:08.105Z,4.26
2019-04-01T22:32:37.527Z,4.20
2019-04-01T22:35:08.588Z,4.18
2019-04-01T22:37:38.156Z,4.23
2019-04-01T22:40:07.603Z,4.17
2019-04-01T22:42:37.016Z,4.17
2019-04-01T22:45:07.336Z,4.12
2019-04-01T22:47:36.751Z,4.09
2019-04-01T22:50:06.870Z,4.08
2019-04-01T22:52:36.297Z,4.06
2019-04-01T22:55:06.198Z,4.00
2019-04-01T22:57:35.626Z,3.94
2019-04-01T23:00:05.734Z,3.93
2019-04-01T23:02:35.151Z,3.91
2019-04-01T23:05:05.989Z,3.82
2019-04-01T23:07:35.405Z,3.79
2019-04-01T23:10:06.554Z,3.76
2019-04-01T23:12:35.980Z,3.73
2019-04-01T23:15:06.859Z,3.69
2019-04-01T23:17:36.281Z,3.66
2019-04-01T23:20:05.990Z,3.66
2019-04-01T23:22:35.411Z,3.70
2019-04-01T23:25:05.591Z,3.61
2019-04-01T23:27:35.006Z,3.63
2019-04-01T23:30:07.668Z,3.56
2019-04-01T23:32:37.082Z,3.58
2019-04-01T23:35:07.405Z,3.52
2019-04-01T23:37:38.071Z,3.51
2019-04-01T23:40:07.841Z,3.48
2019-04-01T23:42:38.067Z,3.50
2019-04-01T23:45:08.345Z,3.48
2019-04-01T23:47:37.762Z,3.44
2019-04-01T23:50:09.153Z,3.41
2019-04-01T23:52:38.961Z,3.38
2019-04-01T23:55:08.405Z,3.38
2019-04-01T23:57:37.815Z,3.39
